Corpus Christi International Airport
KCRP : now visible

Airfield :











YOU CAN JOIN US ON...

 
LOGIN :

Register | Disclaimer

   EN    FR    IT 

 









Legend :    VFR   Marginal VFR   IFR   Intensive IFR   Very Intensive IFR
Visi :
Ceiling :
>= 8 km
>= 3000ft
5 to 8 km
1000 to 3000 ft
1500m to 5 km
500 to 1000 ft
800 to 1500m
200 to 500 ft
< 800m
< 200 ft
Symbols :   Thunderstorms  Fog  Heavy snow  Heavy precipitations  Wind > 20 kt






- Airport Elevation : 44 ft
- IATA code : CRP


KCRP - Corpus Christi International

CURRENT METAR :
  • 270301Z 08007KT 1SM R13/P6000FT BR OVC002 19/18 A2982 RMK AO2 T01890183 $

EXPIRED METARs :
  • 270251Z 08007KT 3/4SM R13/2800VP6000FT BR OVC002 19/18 A2982 RMK AO2 SLP095 VIS NW-NE-E 1/2 T01890183 53018 $
  • 270220Z 11009KT 1/2SM R13/6000VP6000FT FG OVC002 19/19 A2981 RMK AO2 T01890189 $
  • 270151Z 08007KT 1SM R13/P6000FT BR OVC002 19/19 A2980 RMK AO2 SLP088 VIS N 3/4 S 1 1/4 T01940189 $
  • 270117Z 09007KT 3/4SM R13/P6000FT BR BKN003 OVC015 19/19 A2979 RMK AO2 VIS NW 1 T01940189 $
  • 270109Z COR 10008KT 2SM BR FEW003 SCT015 SCT180 OVC250 19/19 A2979 RMK AO2 VIS SE-SW 1 NW 5 T01940189
  • 270051Z 09007KT 7SM FEW017 FEW180 OVC250 20/19 A2978 RMK AO2 SLP082 T02000189

TAF KCRP
Valid from the 27 at 01:00 until the 28 at 00:00 UTC


270120Z 2701/2724 10007KT 2SM BR OVC006
TEMPO 2703/2705 1/2SM FG OVC004
FM270500 VRB05KT 1/4SM FG OVC002
FM271000 35015G28KT P6SM SCT035
TEMPO 2711/2713 BKN025
FM271300 36015G25KT P6SM SCT050
KZHU FIR / North America



MET'MAP, your aeronautical weather chart ! - Copyright ORBIFLY December 2007 - Disclaimer

ORBIFLY MET'MAP TEAM :

Programming & Development : Alexandra Zaïnal
Concept & original design : Baudouin d'Aumeries
Assistance for programming : Marc-Olivier Méhu
Technical & hardware support : Manuel Goepfert

Contact : metmap@orbifly.com




SOURCES & CREDITS :

   NOAA       Earth
Advisory